Time;durP1;ratioP1;P1;durP2;ratioP2;P2;SDS_P1;SDS_P2;PMS_P1;PMS_P2;Temp;Humidity;BMP_temperature;BMP_pressure;BME280_temperature;BME280_humidity;BME280_pressure;Samples;Min_cycle;Max_cycle;Signal;HPM_P1;HPM_P2
2023/10/05 00:03:06;;;;;;;4.80;2.40;;;;;;;;;;6109217;23;20030;-57
2023/10/05 00:05:56;;;;;;;5.30;2.40;;;;;;;;;;6108179;23;20364;-57
2023/10/05 00:08:47;;;;;;;5.60;2.20;;;;;;;;;;6110662;23;20026;-58
2023/10/05 00:11:36;;;;;;;4.40;1.92;;;;;;;;;;6111284;23;20022;-57
2023/10/05 00:14:36;;;;;;;10.77;2.65;;;;;;;;;;6110963;23;20029;-65
2023/10/05 00:17:23;;;;;;;15.43;2.92;;;;;;;;;;6110396;23;20026;-59
2023/10/05 00:20:25;;;;;;;7.32;2.42;;;;;;;;;;6114320;23;20077;-59
2023/10/05 00:23:09;;;;;;;5.60;2.40;;;;;;;;;;6112951;23;20025;-59
2023/10/05 00:26:05;;;;;;;5.50;2.20;;;;;;;;;;6110552;23;20022;-58
2023/10/05 00:29:05;;;;;;;5.65;2.00;;;;;;;;;;6112488;23;20527;-59
2023/10/05 00:31:50;;;;;;;6.45;2.60;;;;;;;;;;6109882;23;20022;-58
2023/10/05 00:34:37;;;;;;;43.30;3.13;;;;;;;;;;6112771;23;20026;-59
2023/10/05 00:37:34;;;;;;;8.60;2.58;;;;;;;;;;6109409;23;20083;-63
2023/10/05 00:40:33;;;;;;;13.23;2.83;;;;;;;;;;6112579;23;20607;-63
2023/10/05 00:43:24;;;;;;;7.07;2.38;;;;;;;;;;6103329;23;20116;-64
2023/10/05 00:46:07;;;;;;;10.65;2.45;;;;;;;;;;6110557;23;20034;-62
2023/10/05 00:49:04;;;;;;;6.88;2.17;;;;;;;;;;6109113;23;20030;-63
2023/10/05 00:52:13;;;;;;;8.95;2.33;;;;;;;;;;6110818;23;20021;-54
2023/10/05 00:54:50;;;;;;;7.60;2.03;;;;;;;;;;6105383;23;20029;-61
2023/10/05 00:57:41;;;;;;;11.18;2.35;;;;;;;;;;6111443;23;20029;-59
2023/10/05 01:00:28;;;;;;;7.97;2.10;;;;;;;;;;6108572;23;20050;-59
2023/10/05 01:03:25;;;;;;;20.42;2.72;;;;;;;;;;6110517;23;20026;-59
2023/10/05 01:06:12;;;;;;;3.65;1.80;;;;;;;;;;6108956;23;20026;-59
2023/10/05 01:09:04;;;;;;;9.82;2.25;;;;;;;;;;6107635;23;20030;-63
2023/10/05 01:12:20;;;;;;;10.90;2.03;;;;;;;;;;6108474;23;20033;-52
2023/10/05 01:14:59;;;;;;;4.50;1.95;;;;;;;;;;6104623;23;20029;-50
2023/10/05 01:17:51;;;;;;;5.95;1.85;;;;;;;;;;6107602;23;20037;-47
2023/10/05 01:20:42;;;;;;;11.82;2.88;;;;;;;;;;6110180;23;20482;-52
2023/10/05 01:23:38;;;;;;;11.45;2.17;;;;;;;;;;6111497;23;20034;-52
2023/10/05 01:26:20;;;;;;;14.90;2.00;;;;;;;;;;6106909;23;20022;-53
2023/10/05 01:29:13;;;;;;;13.40;2.20;;;;;;;;;;6108080;23;20033;-50
2023/10/05 01:32:02;;;;;;;12.32;2.53;;;;;;;;;;6112026;23;20029;-57
2023/10/05 01:34:55;;;;;;;10.02;2.03;;;;;;;;;;6106671;23;20108;-58
2023/10/05 01:37:46;;;;;;;10.95;2.20;;;;;;;;;;6109994;23;20096;-56
2023/10/05 01:40:47;;;;;;;11.90;2.22;;;;;;;;;;6106240;23;20089;-57
2023/10/05 01:43:29;;;;;;;21.73;2.35;;;;;;;;;;6108936;23;20030;-57
2023/10/05 01:46:22;;;;;;;10.98;2.13;;;;;;;;;;6109255;23;20022;-59
2023/10/05 01:49:08;;;;;;;18.55;2.45;;;;;;;;;;6106364;23;20100;-60
2023/10/05 01:52:02;;;;;;;13.35;2.25;;;;;;;;;;6107336;23;20077;-61
2023/10/05 01:54:56;;;;;;;16.02;2.42;;;;;;;;;;6111898;23;20472;-60
2023/10/05 01:57:52;;;;;;;11.73;2.10;;;;;;;;;;6110477;23;20028;-60
2023/10/05 02:00:40;;;;;;;17.88;3.08;;;;;;;;;;6109985;23;20026;-60
2023/10/05 02:03:33;;;;;;;18.40;2.42;;;;;;;;;;6108494;23;20100;-60
2023/10/05 02:06:21;;;;;;;9.57;2.63;;;;;;;;;;6109981;23;20025;-48
2023/10/05 02:09:19;;;;;;;15.52;2.40;;;;;;;;;;6105864;23;20022;-50
2023/10/05 02:12:09;;;;;;;16.48;2.50;;;;;;;;;;6109838;23;20077;-48
2023/10/05 02:15:16;;;;;;;11.07;2.05;;;;;;;;;;6109139;23;20022;-49
2023/10/05 02:18:13;;;;;;;15.27;2.65;;;;;;;;;;6107816;23;20018;-49
2023/10/05 02:21:08;;;;;;;16.05;2.15;;;;;;;;;;6109177;23;20941;-48
2023/10/05 02:23:47;;;;;;;2.33;1.17;;;;;;;;;;6109689;23;20026;-64
2023/10/05 02:26:45;;;;;;;3.33;0.68;;;;;;;;;;6109656;23;20097;-64
2023/10/05 02:29:29;;;;;;;4.03;1.30;;;;;;;;;;6107057;23;20026;-64
2023/10/05 02:32:27;;;;;;;5.53;1.33;;;;;;;;;;6108351;23;20306;-63
2023/10/05 02:35:24;;;;;;;4.18;1.70;;;;;;;;;;6109398;23;20400;-64
2023/10/05 02:38:17;;;;;;;3.47;1.48;;;;;;;;;;6112067;23;20029;-63
2023/10/05 02:41:04;;;;;;;2.78;1.33;;;;;;;;;;6108816;23;20092;-63
2023/10/05 02:43:54;;;;;;;6.10;1.85;;;;;;;;;;6112280;23;20046;-64
2023/10/05 02:46:41;;;;;;;3.65;1.65;;;;;;;;;;6104834;23;20034;-64
2023/10/05 02:49:40;;;;;;;5.35;1.90;;;;;;;;;;6109372;23;20109;-64
2023/10/05 02:52:25;;;;;;;6.68;1.92;;;;;;;;;;6110271;23;20025;-64
2023/10/05 02:55:17;;;;;;;8.25;2.38;;;;;;;;;;6109892;23;20025;-64
2023/10/05 02:58:04;;;;;;;6.75;1.92;;;;;;;;;;6112654;23;20037;-64
2023/10/05 03:00:58;;;;;;;5.00;1.80;;;;;;;;;;6111863;23;20085;-65
2023/10/05 03:03:45;;;;;;;6.35;2.22;;;;;;;;;;6112535;23;20029;-60
2023/10/05 03:06:39;;;;;;;8.95;2.78;;;;;;;;;;6108156;23;20065;-59
2023/10/05 03:09:26;;;;;;;6.43;2.60;;;;;;;;;;6108496;23;20033;-60
2023/10/05 03:12:20;;;;;;;6.55;2.25;;;;;;;;;;6109228;23;20799;-59
2023/10/05 03:15:14;;;;;;;6.78;2.10;;;;;;;;;;6106497;23;20068;-59
2023/10/05 03:18:07;;;;;;;8.52;2.20;;;;;;;;;;6106933;23;20112;-66
2023/10/05 03:20:54;;;;;;;9.45;2.33;;;;;;;;;;6108165;23;20109;-60
2023/10/05 03:23:48;;;;;;;8.88;2.35;;;;;;;;;;6109987;23;20026;-60
2023/10/05 03:26:35;;;;;;;8.30;2.13;;;;;;;;;;6108315;23;20026;-60
2023/10/05 03:29:29;;;;;;;7.85;2.20;;;;;;;;;;6106804;23;20108;-60
2023/10/05 03:32:19;;;;;;;5.30;2.00;;;;;;;;;;6109323;23;20030;-60
2023/10/05 03:35:11;;;;;;;10.40;2.53;;;;;;;;;;6109174;23;20449;-60
2023/10/05 03:38:08;;;;;;;12.88;2.70;;;;;;;;;;6107823;23;20025;-61
2023/10/05 03:40:51;;;;;;;9.63;2.25;;;;;;;;;;6108594;23;20022;-49
2023/10/05 03:43:45;;;;;;;7.28;2.30;;;;;;;;;;6110261;23;20025;-51
2023/10/05 03:46:32;;;;;;;10.20;2.45;;;;;;;;;;6105507;23;20025;-49
2023/10/05 03:49:26;;;;;;;8.88;2.45;;;;;;;;;;6108931;23;20112;-49
2023/10/05 03:52:14;;;;;;;7.97;2.28;;;;;;;;;;6109681;23;20022;-49
2023/10/05 03:55:10;;;;;;;7.70;2.53;;;;;;;;;;6106889;23;20085;-64
2023/10/05 03:57:57;;;;;;;8.30;2.47;;;;;;;;;;6107488;23;20026;-51
2023/10/05 04:00:34;;;;;;;14.35;3.05;;;;;;;;;;6109380;23;20100;-49
2023/10/05 04:03:06;;;;;;;14.93;2.45;;;;;;;;;;6103407;23;20025;-50
2023/10/05 04:05:41;;;;;;;12.95;3.35;;;;;;;;;;6109411;23;20022;-49
2023/10/05 04:08:31;;;;;;;10.50;2.22;;;;;;;;;;6108801;23;20084;-51
2023/10/05 04:11:23;;;;;;;11.90;2.97;;;;;;;;;;6107913;23;20029;-48
2023/10/05 04:14:10;;;;;;;12.85;3.00;;;;;;;;;;6104548;23;20049;-60
2023/10/05 04:17:07;;;;;;;12.00;2.67;;;;;;;;;;6104556;23;20173;-50
2023/10/05 04:19:55;;;;;;;9.25;2.80;;;;;;;;;;6109286;23;20033;-51
2023/10/05 04:22:49;;;;;;;13.50;2.70;;;;;;;;;;6109395;23;20242;-50
2023/10/05 04:25:36;;;;;;;9.85;2.35;;;;;;;;;;6107538;23;20081;-46
2023/10/05 04:28:11;;;;;;;15.98;2.90;;;;;;;;;;6108245;23;20531;-52
2023/10/05 04:30:45;;;;;;;18.05;3.22;;;;;;;;;;6110042;23;20080;-50
2023/10/05 04:33:14;;;;;;;12.63;3.20;;;;;;;;;;6112088;23;20467;-65
2023/10/05 04:36:06;;;;;;;9.25;2.88;;;;;;;;;;6106179;23;20752;-66
2023/10/05 04:39:00;;;;;;;9.63;2.85;;;;;;;;;;6105679;23;20030;-65
2023/10/05 04:41:55;;;;;;;8.43;2.75;;;;;;;;;;6108718;23;20397;-67
2023/10/05 04:44:48;;;;;;;9.75;2.53;;;;;;;;;;6107969;23;20520;-65
2023/10/05 04:47:36;;;;;;;11.77;3.10;;;;;;;;;;6103947;23;20583;-64
2023/10/05 04:50:33;;;;;;;9.65;2.92;;;;;;;;;;6109753;23;20132;-60
2023/10/05 04:53:20;;;;;;;13.95;2.95;;;;;;;;;;6105245;23;20591;-59
2023/10/05 04:56:15;;;;;;;15.30;3.15;;;;;;;;;;6107545;23;20311;-59
2023/10/05 04:59:23;;;;;;;17.15;2.95;;;;;;;;;;6105454;23;20412;-59
2023/10/05 05:02:00;;;;;;;7.85;2.78;;;;;;;;;;6106972;23;20405;-59
2023/10/05 05:07:24;;;;;;;11.60;3.10;;;;;;;;;;6106998;23;20025;-58
2023/10/05 05:10:11;;;;;;;12.52;2.90;;;;;;;;;;6113281;23;20393;-58
2023/10/05 05:13:05;;;;;;;8.40;2.22;;;;;;;;;;6112956;23;20029;-53
2023/10/05 05:16:00;;;;;;;13.45;2.80;;;;;;;;;;6110756;23;20461;-51
2023/10/05 05:18:55;;;;;;;17.38;3.38;;;;;;;;;;6111642;23;20113;-49
2023/10/05 05:21:41;;;;;;;9.65;3.28;;;;;;;;;;6109906;23;20021;-48
2023/10/05 05:24:35;;;;;;;8.30;2.63;;;;;;;;;;6108769;23;20026;-49
2023/10/05 05:27:23;;;;;;;12.47;3.17;;;;;;;;;;6111305;23;20025;-64
2023/10/05 05:30:26;;;;;;;20.17;3.40;;;;;;;;;;6110831;23;20270;-46
2023/10/05 05:33:13;;;;;;;10.93;2.90;;;;;;;;;;6107350;23;20696;-48
2023/10/05 05:36:11;;;;;;;8.52;2.72;;;;;;;;;;6109421;23;20030;-50
2023/10/05 05:38:57;;;;;;;12.38;3.20;;;;;;;;;;6108857;23;20034;-51
2023/10/05 05:41:56;;;;;;;20.80;3.28;;;;;;;;;;6109236;23;20053;-53
2023/10/05 05:44:38;;;;;;;8.93;2.63;;;;;;;;;;6111969;23;20034;-48
2023/10/05 05:47:33;;;;;;;10.85;3.17;;;;;;;;;;6109443;23;20026;-52
2023/10/05 05:50:23;;;;;;;7.05;2.63;;;;;;;;;;6111277;23;20036;-50
2023/10/05 05:53:13;;;;;;;7.10;2.83;;;;;;;;;;6110870;23;20512;-46
2023/10/05 05:56:03;;;;;;;12.35;2.83;;;;;;;;;;6113946;23;20085;-51
2023/10/05 05:58:54;;;;;;;13.90;3.17;;;;;;;;;;6112450;23;20484;-55
2023/10/05 06:01:50;;;;;;;10.95;2.63;;;;;;;;;;6111976;23;20026;-48
2023/10/05 06:04:35;;;;;;;14.20;2.72;;;;;;;;;;6115224;23;20022;-60
2023/10/05 06:07:30;;;;;;;16.10;3.08;;;;;;;;;;6112374;23;20355;-53
2023/10/05 06:10:17;;;;;;;9.43;2.88;;;;;;;;;;6113667;23;20052;-55
2023/10/05 06:13:11;;;;;;;10.45;2.88;;;;;;;;;;6113063;23;20046;-49
2023/10/05 06:16:09;;;;;;;9.13;3.03;;;;;;;;;;6113044;23;20096;-51
2023/10/05 06:19:02;;;;;;;6.95;3.15;;;;;;;;;;6109177;23;20097;-56
2023/10/05 06:21:49;;;;;;;12.77;3.50;;;;;;;;;;6111155;23;20036;-58
2023/10/05 06:24:43;;;;;;;25.15;4.28;;;;;;;;;;6111013;23;20085;-53
2023/10/05 06:27:30;;;;;;;26.75;4.13;;;;;;;;;;6109705;23;20523;-57
2023/10/05 06:30:24;;;;;;;8.40;2.95;;;;;;;;;;6109306;23;20030;-54
2023/10/05 06:33:11;;;;;;;7.93;2.65;;;;;;;;;;6112730;23;20092;-49
2023/10/05 06:36:05;;;;;;;9.60;3.08;;;;;;;;;;6111807;23;20030;-57
2023/10/05 06:38:53;;;;;;;8.47;2.90;;;;;;;;;;6113333;23;20096;-54
2023/10/05 06:41:53;;;;;;;7.40;2.60;;;;;;;;;;6114268;23;20246;-64
2023/10/05 06:44:41;;;;;;;7.30;2.78;;;;;;;;;;6112534;23;20026;-53
2023/10/05 06:47:38;;;;;;;7.55;2.63;;;;;;;;;;6109735;23;20026;-52
2023/10/05 06:50:25;;;;;;;7.50;2.80;;;;;;;;;;6107445;23;20109;-50
2023/10/05 06:53:19;;;;;;;9.13;2.45;;;;;;;;;;6109317;23;20029;-50
2023/10/05 06:56:08;;;;;;;8.40;2.38;;;;;;;;;;6109005;23;20025;-49
2023/10/05 06:59:04;;;;;;;9.02;2.22;;;;;;;;;;6114823;23;20025;-59
2023/10/05 07:01:49;;;;;;;9.50;3.05;;;;;;;;;;6112875;23;20030;-52
2023/10/05 07:04:45;;;;;;;4.50;2.03;;;;;;;;;;6110021;23;20025;-52
2023/10/05 07:07:40;;;;;;;9.18;2.67;;;;;;;;;;6107005;23;20499;-53
2023/10/05 07:10:27;;;;;;;9.50;2.90;;;;;;;;;;6108365;23;20032;-54
2023/10/05 07:13:21;;;;;;;9.80;3.15;;;;;;;;;;6110381;23;20211;-55
2023/10/05 07:16:14;;;;;;;9.88;2.50;;;;;;;;;;6106532;23;20469;-55
2023/10/05 07:19:08;;;;;;;10.75;2.72;;;;;;;;;;6111731;23;20030;-58
2023/10/05 07:21:55;;;;;;;9.43;3.30;;;;;;;;;;6112632;23;20077;-61
2023/10/05 07:24:49;;;;;;;9.13;2.33;;;;;;;;;;6113220;23;20054;-61
2023/10/05 07:27:41;;;;;;;7.60;3.08;;;;;;;;;;6110073;23;20502;-61
2023/10/05 07:30:34;;;;;;;9.82;3.22;;;;;;;;;;6110100;23;20613;-61
2023/10/05 07:33:21;;;;;;;7.90;2.83;;;;;;;;;;6112037;23;20324;-62
2023/10/05 07:36:15;;;;;;;6.43;2.13;;;;;;;;;;6110090;23;20482;-61
2023/10/05 07:39:04;;;;;;;7.95;2.80;;;;;;;;;;6112250;23;20770;-60
2023/10/05 07:41:56;;;;;;;8.32;2.80;;;;;;;;;;6110829;23;20465;-60
2023/10/05 07:44:50;;;;;;;9.80;3.50;;;;;;;;;;6113316;23;20018;-61
2023/10/05 07:47:41;;;;;;;10.52;2.47;;;;;;;;;;6111621;23;20080;-60
2023/10/05 07:50:37;;;;;;;5.75;2.75;;;;;;;;;;6109661;23;20108;-60
2023/10/05 07:53:22;;;;;;;10.18;2.97;;;;;;;;;;6111585;23;20077;-54
2023/10/05 07:56:16;;;;;;;7.60;2.50;;;;;;;;;;6109729;23;20085;-61
2023/10/05 07:59:04;;;;;;;12.00;2.60;;;;;;;;;;6112448;23;20086;-61
2023/10/05 08:01:58;;;;;;;6.20;2.70;;;;;;;;;;6112401;23;20081;-61
2023/10/05 08:04:52;;;;;;;8.48;2.75;;;;;;;;;;6113863;23;20022;-61
2023/10/05 08:07:46;;;;;;;7.20;2.28;;;;;;;;;;6111677;23;20022;-61
2023/10/05 08:10:33;;;;;;;8.85;2.38;;;;;;;;;;6109519;23;20388;-61
2023/10/05 08:13:27;;;;;;;6.65;2.90;;;;;;;;;;6107558;23;20077;-65
2023/10/05 08:16:22;;;;;;;7.72;2.65;;;;;;;;;;6105187;23;20289;-59
2023/10/05 08:19:15;;;;;;;6.97;2.60;;;;;;;;;;6109654;23;20128;-59
2023/10/05 08:22:02;;;;;;;8.48;2.15;;;;;;;;;;6108345;23;20033;-61
2023/10/05 08:25:12;;;;;;;7.22;2.33;;;;;;;;;;6110771;23;20089;-59
2023/10/05 08:28:09;;;;;;;10.35;2.67;;;;;;;;;;6107137;23;20025;-59
2023/10/05 08:31:06;;;;;;;6.47;2.53;;;;;;;;;;6109584;23;20049;-64
2023/10/05 08:34:09;;;;;;;5.68;2.20;;;;;;;;;;6112153;23;20396;-59
2023/10/05 08:36:54;;;;;;;6.20;2.28;;;;;;;;;;6110211;23;20022;-59
2023/10/05 08:39:51;;;;;;;6.97;2.70;;;;;;;;;;6112342;23;20034;-58
2023/10/05 08:42:36;;;;;;;6.93;2.40;;;;;;;;;;6108272;23;20021;-58
2023/10/05 08:45:34;;;;;;;6.30;2.17;;;;;;;;;;6109522;23;20026;-58
2023/10/05 08:48:34;;;;;;;5.82;2.00;;;;;;;;;;6114130;23;20080;-59
2023/10/05 08:51:16;;;;;;;7.43;2.58;;;;;;;;;;6109684;23;20516;-57
2023/10/05 08:54:33;;;;;;;4.07;2.15;;;;;;;;;;6110998;23;20102;-58
2023/10/05 08:57:12;;;;;;;4.47;2.15;;;;;;;;;;6109567;23;20092;-58
2023/10/05 09:00:07;;;;;;;5.75;2.28;;;;;;;;;;6116315;23;20029;-59
2023/10/05 09:02:54;;;;;;;4.82;2.10;;;;;;;;;;6110616;23;20029;-58
2023/10/05 09:06:44;;;;;;;7.65;1.88;;;;;;;;;;6114027;23;20022;-60
2023/10/05 09:08:54;;;;;;;4.60;1.98;;;;;;;;;;6093873;23;20026;-58
2023/10/05 09:11:48;;;;;;;5.07;1.90;;;;;;;;;;6112418;23;20026;-52
2023/10/05 09:14:42;;;;;;;5.75;2.60;;;;;;;;;;6108741;23;20093;-55
2023/10/05 09:17:36;;;;;;;4.45;2.10;;;;;;;;;;6111110;23;20026;-54
2023/10/05 09:20:24;;;;;;;7.32;1.95;;;;;;;;;;6111202;23;20053;-53
2023/10/05 09:23:25;;;;;;;5.65;1.95;;;;;;;;;;6111031;23;20022;-56
2023/10/05 09:26:39;;;;;;;5.47;2.33;;;;;;;;;;6114746;23;20185;-59
2023/10/05 09:29:32;;;;;;;5.80;2.20;;;;;;;;;;6110821;23;20026;-46
2023/10/05 09:32:36;;;;;;;6.82;2.13;;;;;;;;;;6113948;23;20085;-47
2023/10/05 09:35:31;;;;;;;6.05;2.13;;;;;;;;;;6110050;23;20100;-49
2023/10/05 09:38:19;;;;;;;4.00;1.92;;;;;;;;;;6114282;23;20030;-49
2023/10/05 09:41:14;;;;;;;3.10;1.77;;;;;;;;;;6113825;23;20357;-52
2023/10/05 09:44:07;;;;;;;7.03;2.35;;;;;;;;;;6114532;23;20100;-52
2023/10/05 09:46:59;;;;;;;6.93;1.90;;;;;;;;;;6110237;23;20473;-49
2023/10/05 09:49:56;;;;;;;5.38;2.00;;;;;;;;;;6113235;23;20053;-48
2023/10/05 09:52:45;;;;;;;7.35;2.38;;;;;;;;;;6109393;23;20026;-46
2023/10/05 09:55:40;;;;;;;17.48;3.45;;;;;;;;;;6110835;23;20384;-50
2023/10/05 09:58:25;;;;;;;9.02;3.25;;;;;;;;;;6111505;23;20022;-45
2023/10/05 10:01:20;;;;;;;8.13;3.42;;;;;;;;;;6109605;23;20026;-47
2023/10/05 10:04:28;;;;;;;11.45;3.45;;;;;;;;;;6110426;23;20030;-59
2023/10/05 10:07:15;;;;;;;6.70;3.10;;;;;;;;;;6109842;23;20033;-53
2023/10/05 10:10:04;;;;;;;6.03;2.83;;;;;;;;;;6109588;23;20077;-52
2023/10/05 10:12:52;;;;;;;7.78;2.97;;;;;;;;;;6109702;23;20030;-54
2023/10/05 10:15:53;;;;;;;7.97;3.25;;;;;;;;;;6109704;23;20873;-54
2023/10/05 10:18:43;;;;;;;7.85;2.97;;;;;;;;;;6111930;23;20080;-54
2023/10/05 10:21:46;;;;;;;5.95;2.88;;;;;;;;;;6112085;23;20029;-59
2023/10/05 10:24:34;;;;;;;8.43;2.28;;;;;;;;;;6112917;23;20029;-65
2023/10/05 10:27:28;;;;;;;7.28;2.22;;;;;;;;;;6110601;23;20064;-65
2023/10/05 10:30:16;;;;;;;6.50;2.20;;;;;;;;;;6114009;23;20030;-65
2023/10/05 10:33:24;;;;;;;6.38;2.05;;;;;;;;;;6112021;23;20022;-66
2023/10/05 10:36:18;;;;;;;6.45;2.78;;;;;;;;;;6112022;23;20026;-65
2023/10/05 10:39:22;;;;;;;9.52;2.80;;;;;;;;;;6111054;23;20026;-65
2023/10/05 10:42:12;;;;;;;8.27;3.80;;;;;;;;;;6108706;23;20029;-51
2023/10/05 10:47:35;;;;;;;7.57;3.60;;;;;;;;;;6111574;23;20532;-55
2023/10/05 10:50:22;;;;;;;8.85;3.50;;;;;;;;;;6110077;23;20507;-52
2023/10/05 10:53:16;;;;;;;6.43;2.75;;;;;;;;;;6112583;23;20022;-55
2023/10/05 10:56:30;;;;;;;13.10;4.00;;;;;;;;;;6106644;23;20259;-51
2023/10/05 10:59:26;;;;;;;8.45;3.63;;;;;;;;;;6111323;23;20076;-57
2023/10/05 11:02:19;;;;;;;9.52;3.17;;;;;;;;;;6110619;23;20069;-59
2023/10/05 11:05:08;;;;;;;7.15;3.33;;;;;;;;;;6111618;23;20026;-59
2023/10/05 11:08:01;;;;;;;6.90;3.17;;;;;;;;;;6110211;23;20112;-59
2023/10/05 11:11:06;;;;;;;13.25;3.40;;;;;;;;;;6112547;23;20500;-59
2023/10/05 11:14:05;;;;;;;8.43;3.17;;;;;;;;;;6110047;23;20022;-59
2023/10/05 11:17:00;;;;;;;5.90;3.28;;;;;;;;;;6112488;23;20033;-46
2023/10/05 11:19:49;;;;;;;6.95;3.28;;;;;;;;;;6109109;23;20022;-66
2023/10/05 11:22:42;;;;;;;6.70;3.13;;;;;;;;;;6112212;23;20033;-65
2023/10/05 11:25:34;;;;;;;4.57;2.25;;;;;;;;;;6109505;23;20473;-66
2023/10/05 11:28:35;;;;;;;3.65;1.83;;;;;;;;;;6107477;23;20386;-65
2023/10/05 11:31:33;;;;;;;7.75;1.80;;;;;;;;;;6112538;23;20040;-65
2023/10/05 11:34:44;;;;;;;3.05;1.90;;;;;;;;;;6110834;23;20108;-57
2023/10/05 11:37:58;;;;;;;2.45;1.27;;;;;;;;;;6111396;23;20026;-59
2023/10/05 11:40:49;;;;;;;7.35;3.67;;;;;;;;;;6108633;23;20021;-60
2023/10/05 11:43:39;;;;;;;13.20;4.97;;;;;;;;;;6108992;23;20025;-59
2023/10/05 11:46:46;;;;;;;11.43;4.40;;;;;;;;;;6108829;23;20105;-59
2023/10/05 11:49:31;;;;;;;9.70;4.10;;;;;;;;;;6108625;23;20026;-61
2023/10/05 11:52:28;;;;;;;10.00;4.97;;;;;;;;;;6108114;23;20057;-57
2023/10/05 11:55:16;;;;;;;11.02;5.03;;;;;;;;;;6108317;23;20555;-48
2023/10/05 11:58:09;;;;;;;14.13;5.60;;;;;;;;;;6110598;23;20049;-46
2023/10/05 12:01:03;;;;;;;14.50;5.82;;;;;;;;;;6112371;23;20030;-46
2023/10/05 12:03:51;;;;;;;15.53;5.90;;;;;;;;;;6111334;23;20030;-45
2023/10/05 12:06:45;;;;;;;13.70;6.05;;;;;;;;;;6112405;23;20026;-45
2023/10/05 12:09:36;;;;;;;15.80;6.63;;;;;;;;;;6114832;23;20105;-45
2023/10/05 12:12:27;;;;;;;12.63;6.20;;;;;;;;;;6111665;23;20432;-57
2023/10/05 12:15:22;;;;;;;15.82;6.47;;;;;;;;;;6113753;23;20093;-65
2023/10/05 12:18:22;;;;;;;14.40;4.72;;;;;;;;;;6111304;23;20097;-64
2023/10/05 12:21:10;;;;;;;15.23;4.90;;;;;;;;;;6112527;23;20029;-64
2023/10/05 12:24:04;;;;;;;10.73;4.65;;;;;;;;;;6110292;23;20109;-64
2023/10/05 12:26:51;;;;;;;17.55;5.15;;;;;;;;;;6112252;23;20082;-65
2023/10/05 12:29:45;;;;;;;14.07;5.55;;;;;;;;;;6114962;23;20021;-59
2023/10/05 12:32:35;;;;;;;16.17;7.03;;;;;;;;;;6113759;23;20086;-64
2023/10/05 12:35:30;;;;;;;17.48;7.05;;;;;;;;;;6116486;23;20278;-64
2023/10/05 12:38:23;;;;;;;15.38;7.22;;;;;;;;;;6109701;23;20104;-64
2023/10/05 12:41:16;;;;;;;19.13;7.57;;;;;;;;;;6113826;23;20041;-64
2023/10/05 12:44:13;;;;;;;12.57;6.28;;;;;;;;;;6113526;23;20504;-65
2023/10/05 12:47:07;;;;;;;11.90;5.00;;;;;;;;;;6109803;23;20077;-65
2023/10/05 12:49:52;;;;;;;11.25;4.65;;;;;;;;;;6113241;23;20026;-56
2023/10/05 12:52:46;;;;;;;10.13;4.93;;;;;;;;;;6109884;23;20025;-56
2023/10/05 12:55:35;;;;;;;11.20;4.47;;;;;;;;;;6109892;23;20081;-54
2023/10/05 12:58:27;;;;;;;11.90;4.38;;;;;;;;;;6110992;23;20061;-54
2023/10/05 13:01:14;;;;;;;11.65;4.65;;;;;;;;;;6111141;23;20025;-56
2023/10/05 13:04:09;;;;;;;12.85;5.22;;;;;;;;;;6113600;23;20017;-57
2023/10/05 13:06:56;;;;;;;15.07;6.38;;;;;;;;;;6115357;23;20022;-56
2023/10/05 13:10:00;;;;;;;13.60;5.63;;;;;;;;;;6111678;23;20022;-54
2023/10/05 13:12:38;;;;;;;13.85;5.45;;;;;;;;;;6109410;23;20030;-55
2023/10/05 13:15:45;;;;;;;13.20;5.70;;;;;;;;;;6107789;23;20060;-52
2023/10/05 13:18:42;;;;;;;12.85;6.40;;;;;;;;;;6109556;23;20026;-52
2023/10/05 13:21:35;;;;;;;19.80;7.22;;;;;;;;;;6112958;23;20044;-53
2023/10/05 13:24:22;;;;;;;14.55;6.72;;;;;;;;;;6114361;23;20333;-55
2023/10/05 13:27:16;;;;;;;20.13;8.45;;;;;;;;;;6108545;23;20029;-64
2023/10/05 13:30:05;;;;;;;18.25;7.38;;;;;;;;;;6109030;23;20026;-66
2023/10/05 13:33:08;;;;;;;16.38;6.75;;;;;;;;;;6112931;23;20029;-63
2023/10/05 13:35:48;;;;;;;20.08;8.27;;;;;;;;;;6114749;23;20479;-64
2023/10/05 13:38:43;;;;;;;16.77;7.00;;;;;;;;;;6114238;23;20037;-64
2023/10/05 13:41:35;;;;;;;19.13;7.47;;;;;;;;;;6114439;23;20022;-64
2023/10/05 13:44:22;;;;;;;16.73;6.90;;;;;;;;;;6111596;23;20025;-58
2023/10/05 13:47:17;;;;;;;15.20;7.22;;;;;;;;;;6112782;23;20030;-63
2023/10/05 13:50:08;;;;;;;14.05;6.25;;;;;;;;;;6105758;23;20037;-64
2023/10/05 13:52:59;;;;;;;12.27;5.65;;;;;;;;;;6114699;23;20025;-64
2023/10/05 13:55:48;;;;;;;16.15;6.07;;;;;;;;;;6112985;23;20025;-64
2023/10/05 13:58:46;;;;;;;14.25;6.18;;;;;;;;;;6110579;23;20022;-64
2023/10/05 14:01:37;;;;;;;11.48;5.45;;;;;;;;;;6108957;23;20092;-58
2023/10/05 14:04:30;;;;;;;13.13;6.13;;;;;;;;;;6111807;23;20029;-56
2023/10/05 14:07:16;;;;;;;14.70;5.70;;;;;;;;;;6109248;23;20034;-54
2023/10/05 14:10:10;;;;;;;15.27;5.22;;;;;;;;;;6114634;23;20026;-55
2023/10/05 14:12:58;;;;;;;16.40;5.70;;;;;;;;;;6110732;23;20029;-56
2023/10/05 14:16:05;;;;;;;13.45;5.57;;;;;;;;;;6108720;23;20021;-57
2023/10/05 14:18:59;;;;;;;13.70;6.00;;;;;;;;;;6111122;23;20030;-56
2023/10/05 14:21:55;;;;;;;15.07;6.32;;;;;;;;;;6111768;23;20101;-58
2023/10/05 14:24:41;;;;;;;11.27;5.80;;;;;;;;;;6109996;23;20049;-60
2023/10/05 14:27:35;;;;;;;12.07;4.93;;;;;;;;;;6111721;23;20021;-60
2023/10/05 14:30:23;;;;;;;17.17;5.25;;;;;;;;;;6112484;23;20034;-59
2023/10/05 14:33:17;;;;;;;11.90;4.57;;;;;;;;;;6113763;23;20030;-59
2023/10/05 14:36:11;;;;;;;11.65;4.40;;;;;;;;;;6117023;23;20097;-59
2023/10/05 14:39:18;;;;;;;12.88;4.88;;;;;;;;;;6113667;23;20026;-71
2023/10/05 14:41:55;;;;;;;9.65;4.60;;;;;;;;;;6109721;23;20368;-55
2023/10/05 14:44:49;;;;;;;8.70;3.53;;;;;;;;;;6108804;23;20029;-57
2023/10/05 14:47:35;;;;;;;10.18;3.30;;;;;;;;;;6111570;23;20081;-56
2023/10/05 14:50:29;;;;;;;10.88;4.40;;;;;;;;;;6112161;23;20028;-54
2023/10/05 14:53:21;;;;;;;7.38;3.50;;;;;;;;;;6108896;23;20108;-56
2023/10/05 14:56:11;;;;;;;11.38;4.45;;;;;;;;;;6109943;23;20026;-58
2023/10/05 14:58:57;;;;;;;12.65;4.78;;;;;;;;;;6110623;23;20077;-70
2023/10/05 15:01:51;;;;;;;7.82;3.90;;;;;;;;;;6113256;23;20112;-70
2023/10/05 15:04:41;;;;;;;8.63;3.77;;;;;;;;;;6110604;23;20026;-69
2023/10/05 15:07:33;;;;;;;10.15;3.75;;;;;;;;;;6108945;23;20076;-70
2023/10/05 15:10:21;;;;;;;10.25;3.78;;;;;;;;;;6110548;23;20108;-70
2023/10/05 15:13:14;;;;;;;9.63;3.83;;;;;;;;;;6114511;23;20323;-70
2023/10/05 15:16:09;;;;;;;11.20;4.00;;;;;;;;;;6109757;23;20053;-64
2023/10/05 15:19:02;;;;;;;9.13;4.00;;;;;;;;;;6107227;23;20022;-64
2023/10/05 15:21:50;;;;;;;11.70;3.90;;;;;;;;;;6112825;23;20105;-64
2023/10/05 15:24:45;;;;;;;7.25;3.53;;;;;;;;;;6112098;23;20034;-64
2023/10/05 15:27:33;;;;;;;9.80;3.92;;;;;;;;;;6112405;23;20530;-63
2023/10/05 15:30:26;;;;;;;9.75;3.90;;;;;;;;;;6112241;23;20030;-64
2023/10/05 15:33:14;;;;;;;11.63;3.72;;;;;;;;;;6113715;23;20055;-50
2023/10/05 15:36:09;;;;;;;8.35;3.50;;;;;;;;;;6110079;23;20089;-54
2023/10/05 15:38:57;;;;;;;10.38;4.25;;;;;;;;;;6106486;23;20076;-55
2023/10/05 15:41:49;;;;;;;10.50;4.28;;;;;;;;;;6113903;23;20358;-55
2023/10/05 15:44:37;;;;;;;10.43;4.55;;;;;;;;;;6111524;23;20022;-56
2023/10/05 15:47:31;;;;;;;10.25;4.57;;;;;;;;;;6114001;23;20030;-53
2023/10/05 15:50:20;;;;;;;10.30;3.97;;;;;;;;;;6110359;23;20337;-56
2023/10/05 15:53:12;;;;;;;15.43;5.15;;;;;;;;;;6108458;23;20652;-68
2023/10/05 15:56:08;;;;;;;13.43;4.80;;;;;;;;;;6111265;23;20371;-58
2023/10/05 15:59:02;;;;;;;15.60;4.72;;;;;;;;;;6111142;23;20029;-58
2023/10/05 16:01:49;;;;;;;12.45;4.68;;;;;;;;;;6110340;23;20400;-58
2023/10/05 16:04:42;;;;;;;10.80;4.65;;;;;;;;;;6109648;23;20030;-58
2023/10/05 16:07:29;;;;;;;9.98;4.45;;;;;;;;;;6112569;23;20152;-58
2023/10/05 16:10:23;;;;;;;11.25;4.70;;;;;;;;;;6109670;23;20085;-58
2023/10/05 17:18:53;;;;;;;18.95;5.47;;;;;;;;;;6054510;23;20471;-59
2023/10/05 17:21:27;;;;;;;16.50;5.20;;;;;;;;;;6051176;23;20089;-59
2023/10/05 17:24:01;;;;;;;16.00;5.90;;;;;;;;;;6054092;23;20030;-74
2023/10/05 17:26:48;;;;;;;15.75;5.15;;;;;;;;;;6053160;23;20027;-49
2023/10/05 17:29:43;;;;;;;16.67;5.35;;;;;;;;;;6052512;23;20358;-45
2023/10/05 17:32:32;;;;;;;13.82;4.78;;;;;;;;;;6047473;23;20026;-46
2023/10/05 17:35:23;;;;;;;14.80;4.55;;;;;;;;;;6048880;23;20097;-45
2023/10/05 17:38:10;;;;;;;16.35;5.60;;;;;;;;;;6053837;23;20082;-48
2023/10/05 17:40:55;;;;;;;16.75;5.38;;;;;;;;;;6051870;23;20030;-45
2023/10/05 17:43:41;;;;;;;11.52;3.80;;;;;;;;;;6046950;23;20026;-59
2023/10/05 17:46:35;;;;;;;5.82;2.20;;;;;;;;;;6053840;23;20525;-57
2023/10/05 17:49:22;;;;;;;17.52;5.38;;;;;;;;;;6052782;23;20105;-56
2023/10/05 17:52:16;;;;;;;14.52;5.60;;;;;;;;;;6049958;23;20031;-58
2023/10/05 17:54:51;;;;;;;15.82;4.93;;;;;;;;;;6044837;23;20026;-57
2023/10/05 17:57:25;;;;;;;13.75;5.10;;;;;;;;;;6052532;23;20041;-52
2023/10/05 18:00:19;;;;;;;15.48;4.90;;;;;;;;;;6050667;23;20034;-66
2023/10/05 18:02:54;;;;;;;18.30;4.78;;;;;;;;;;6049047;23;20391;-66
2023/10/05 18:05:54;;;;;;;14.27;4.97;;;;;;;;;;6066752;23;20070;-66
2023/10/05 18:08:42;;;;;;;21.30;5.00;;;;;;;;;;6047644;23;20075;-67
2023/10/05 18:11:36;;;;;;;16.98;5.10;;;;;;;;;;6048698;23;20038;-66
2023/10/05 18:14:29;;;;;;;29.85;6.57;;;;;;;;;;6051528;23;20094;-66